createdAt,value
2023-10-26T00:00:39.105Z,84.22
2023-10-26T00:03:06.089Z,84.38
2023-10-26T00:05:32.860Z,84.49
2023-10-26T00:07:59.377Z,84.38
2023-10-26T00:10:26.037Z,84.17
2023-10-26T00:12:52.805Z,84.44
2023-10-26T00:15:19.446Z,84.38
2023-10-26T00:17:46.557Z,84.13
2023-10-26T00:20:13.477Z,84.23
2023-10-26T00:22:40.130Z,84.08
2023-10-26T00:25:07.367Z,84.27
2023-10-26T00:27:34.864Z,84.19
2023-10-26T00:30:01.627Z,84.33
2023-10-26T00:32:28.412Z,84.15
2023-10-26T00:34:55.018Z,84.11
2023-10-26T00:37:21.627Z,84.12
2023-10-26T00:39:48.176Z,84.38
2023-10-26T00:42:14.755Z,84.32
2023-10-26T00:44:41.533Z,84.39
2023-10-26T00:47:08.255Z,84.65
2023-10-26T00:49:35.085Z,84.50
2023-10-26T00:52:03.770Z,84.61
2023-10-26T00:54:33.086Z,84.68
2023-10-26T00:57:00.333Z,84.70
2023-10-26T00:59:30.649Z,84.60
2023-10-26T01:01:58.629Z,84.89
2023-10-26T01:04:25.384Z,84.84
2023-10-26T01:06:52.004Z,84.92
2023-10-26T01:09:18.766Z,84.60
2023-10-26T01:11:45.717Z,84.74
2023-10-26T01:14:12.618Z,84.66
2023-10-26T01:16:40.837Z,84.79
2023-10-26T01:19:09.086Z,85.00
2023-10-26T01:21:53.177Z,84.83
2023-10-26T01:24:20.367Z,85.05
2023-10-26T01:26:47.288Z,84.92
2023-10-26T01:29:13.849Z,85.07
2023-10-26T01:31:40.469Z,84.97
2023-10-26T01:34:07.104Z,84.94
2023-10-26T01:36:33.670Z,84.93
2023-10-26T01:39:02.244Z,84.71
2023-10-26T01:41:33.456Z,84.83
2023-10-26T01:44:02.105Z,84.84
2023-10-26T01:46:28.651Z,84.88
2023-10-26T01:48:55.510Z,84.61
2023-10-26T01:51:22.120Z,84.74
2023-10-26T01:53:48.682Z,84.92
2023-10-26T01:56:15.372Z,84.97
2023-10-26T01:58:41.968Z,84.70
2023-10-26T02:01:08.465Z,85.01
2023-10-26T02:03:35.033Z,85.15
2023-10-26T02:06:04.014Z,85.06
2023-10-26T02:08:30.795Z,85.37
2023-10-26T02:10:57.528Z,85.37
2023-10-26T02:13:24.099Z,85.36
2023-10-26T02:15:50.665Z,85.31
2023-10-26T02:18:17.249Z,85.27
2023-10-26T02:20:43.865Z,85.37
2023-10-26T02:23:10.563Z,85.38
2023-10-26T02:25:37.038Z,85.22
2023-10-26T02:28:04.330Z,85.41
2023-10-26T02:30:30.882Z,85.18
2023-10-26T02:32:57.586Z,85.21
2023-10-26T02:35:24.224Z,85.32
2023-10-26T02:37:50.909Z,85.25
2023-10-26T02:40:17.492Z,85.49
2023-10-26T02:42:44.128Z,85.19
2023-10-26T02:45:10.819Z,85.48
2023-10-26T02:47:39.061Z,85.24
2023-10-26T02:50:07.546Z,85.41
2023-10-26T02:52:34.138Z,85.49
2023-10-26T02:55:00.846Z,85.33
2023-10-26T02:57:27.532Z,85.23
2023-10-26T02:59:55.130Z,85.33
2023-10-26T03:02:21.754Z,85.42
2023-10-26T03:04:48.476Z,85.27
2023-10-26T03:07:22.006Z,85.35
2023-10-26T03:09:49.034Z,85.26
2023-10-26T03:12:15.895Z,85.06
2023-10-26T03:14:42.773Z,85.11
2023-10-26T03:17:09.520Z,85.05
2023-10-26T03:19:36.111Z,85.07
2023-10-26T03:22:02.818Z,84.91
2023-10-26T03:24:29.498Z,84.98
2023-10-26T03:26:56.095Z,84.94
2023-10-26T03:29:22.792Z,85.06
2023-10-26T03:31:49.422Z,84.81
2023-10-26T03:34:15.971Z,84.96
2023-10-26T03:36:42.688Z,84.80
2023-10-26T03:39:09.423Z,84.84
2023-10-26T03:41:36.144Z,84.63
2023-10-26T03:44:02.785Z,84.81
2023-10-26T03:46:29.343Z,84.83
2023-10-26T03:48:55.939Z,84.63
2023-10-26T03:51:22.734Z,84.91
2023-10-26T03:53:49.579Z,84.65
2023-10-26T03:56:16.153Z,84.89
2023-10-26T03:58:42.715Z,84.90
2023-10-26T04:01:09.264Z,84.87
2023-10-26T04:03:36.065Z,85.16
2023-10-26T04:06:02.704Z,85.16
2023-10-26T04:08:29.250Z,85.10
2023-10-26T04:10:55.791Z,85.30
2023-10-26T04:13:22.357Z,85.10
2023-10-26T04:15:50.545Z,85.35
2023-10-26T04:18:18.646Z,85.25
2023-10-26T04:20:45.454Z,85.45
2023-10-26T04:23:11.960Z,85.54
2023-10-26T04:25:52.998Z,85.66
2023-10-26T04:28:20.904Z,85.50
2023-10-26T04:30:50.791Z,85.34
2023-10-26T04:33:18.550Z,85.41
2023-10-26T04:35:46.314Z,85.44
2023-10-26T04:38:13.205Z,85.23
2023-10-26T04:40:40.959Z,85.57
2023-10-26T04:43:08.396Z,85.53
2023-10-26T04:45:35.383Z,85.46
2023-10-26T04:48:02.600Z,85.52
2023-10-26T04:50:31.408Z,85.61
2023-10-26T04:53:03.620Z,85.65
2023-10-26T04:55:35.217Z,85.70
2023-10-26T04:58:03.041Z,85.75
2023-10-26T05:00:29.862Z,85.35
2023-10-26T05:02:56.668Z,85.66
2023-10-26T05:05:23.339Z,85.67
2023-10-26T05:07:50.059Z,85.82
2023-10-26T05:10:16.658Z,85.71
2023-10-26T05:12:43.612Z,85.63
2023-10-26T05:15:10.388Z,85.60
2023-10-26T05:17:38.430Z,85.83
2023-10-26T05:20:06.306Z,85.66
2023-10-26T05:22:35.753Z,85.80
2023-10-26T05:25:05.486Z,85.67
2023-10-26T05:27:37.115Z,85.69
2023-10-26T05:30:05.880Z,85.88
2023-10-26T05:32:32.562Z,85.83
2023-10-26T05:34:59.341Z,85.73
2023-10-26T05:37:26.035Z,85.90
2023-10-26T05:39:52.609Z,85.76
2023-10-26T05:42:19.383Z,85.71
2023-10-26T05:44:46.037Z,85.72
2023-10-26T05:47:12.525Z,85.57
2023-10-26T05:49:39.135Z,85.75
2023-10-26T05:52:06.007Z,85.62
2023-10-26T05:54:32.776Z,85.69
2023-10-26T05:56:59.724Z,85.63
2023-10-26T05:59:27.597Z,85.61
2023-10-26T06:01:54.234Z,85.84
2023-10-26T06:04:21.070Z,85.56
2023-10-26T06:06:47.884Z,85.53
2023-10-26T06:09:14.540Z,85.64
2023-10-26T06:11:41.076Z,85.75
2023-10-26T06:14:07.696Z,85.60
2023-10-26T06:16:34.256Z,85.62
2023-10-26T06:19:00.770Z,85.68
2023-10-26T06:21:28.525Z,85.45
2023-10-26T06:23:55.334Z,85.59
2023-10-26T06:26:21.993Z,85.39
2023-10-26T06:28:48.605Z,85.43
2023-10-26T06:31:15.986Z,85.50
2023-10-26T06:33:43.946Z,85.30
2023-10-26T06:36:14.067Z,85.51
2023-10-26T06:38:41.240Z,85.42
2023-10-26T06:41:10.470Z,85.38
2023-10-26T06:43:38.311Z,85.36
2023-10-26T06:46:05.387Z,85.39
2023-10-26T06:48:32.051Z,85.32
2023-10-26T06:51:00.854Z,85.25
2023-10-26T06:53:28.448Z,85.25
2023-10-26T06:55:54.919Z,85.21
2023-10-26T06:58:21.388Z,85.10
2023-10-26T07:00:52.609Z,85.34
2023-10-26T07:03:20.096Z,85.13
2023-10-26T07:05:48.795Z,85.39
2023-10-26T07:08:15.440Z,85.41
2023-10-26T07:10:41.983Z,85.36
2023-10-26T07:13:09.269Z,85.37
2023-10-26T07:15:37.345Z,85.29
2023-10-26T07:18:05.236Z,85.23
2023-10-26T07:20:31.936Z,85.28
2023-10-26T07:22:58.529Z,85.22
2023-10-26T07:25:25.037Z,85.05
2023-10-26T07:27:51.824Z,85.11
2023-10-26T07:30:18.630Z,85.13
2023-10-26T07:32:45.253Z,85.13
2023-10-26T07:35:12.110Z,85.08
2023-10-26T07:37:39.117Z,84.88
2023-10-26T07:40:29.038Z,84.90
2023-10-26T07:42:53.704Z,84.92
2023-10-26T07:45:20.379Z,84.70
2023-10-26T07:47:47.712Z,84.98
2023-10-26T07:50:18.005Z,84.85
2023-10-26T07:52:44.551Z,85.10
2023-10-26T07:55:11.250Z,85.23
2023-10-26T07:57:38.335Z,85.04
2023-10-26T08:00:06.076Z,84.98
2023-10-26T08:02:35.260Z,85.21
2023-10-26T08:05:02.563Z,85.21
2023-10-26T08:07:29.200Z,84.98
2023-10-26T08:09:55.778Z,85.06
2023-10-26T08:12:22.322Z,85.05
2023-10-26T08:16:29.663Z,85.29
2023-10-26T08:17:36.688Z,85.25
2023-10-26T08:20:05.642Z,85.13
2023-10-26T08:22:32.839Z,85.35
2023-10-26T08:25:00.626Z,85.27
2023-10-26T08:27:27.152Z,85.32
2023-10-26T08:29:53.828Z,85.31
2023-10-26T08:32:21.102Z,85.38
2023-10-26T08:34:48.012Z,85.15
2023-10-26T08:37:14.705Z,85.17
2023-10-26T08:39:41.868Z,85.22
2023-10-26T08:42:09.769Z,85.28
2023-10-26T08:44:37.670Z,85.23
2023-10-26T08:47:05.372Z,85.20
2023-10-26T08:49:33.294Z,85.07
2023-10-26T08:52:00.865Z,85.01
2023-10-26T08:54:28.089Z,85.11
2023-10-26T08:56:55.444Z,85.13
2023-10-26T08:59:24.431Z,85.03
2023-10-26T09:01:51.415Z,84.88
2023-10-26T09:06:49.136Z,84.59
2023-10-26T09:09:16.836Z,84.96
2023-10-26T09:11:47.969Z,85.06
2023-10-26T09:14:15.756Z,85.12
2023-10-26T09:16:44.902Z,85.02
2023-10-26T09:19:19.583Z,85.15
2023-10-26T09:21:53.620Z,85.14
2023-10-26T09:24:22.538Z,85.43
2023-10-26T09:26:49.551Z,85.31
2023-10-26T09:29:16.205Z,85.36
2023-10-26T09:31:54.552Z,85.51
2023-10-26T09:34:27.775Z,85.47
2023-10-26T09:37:04.614Z,85.60
2023-10-26T09:39:36.458Z,85.56
2023-10-26T09:42:04.236Z,85.47
2023-10-26T09:44:31.261Z,85.56
2023-10-26T09:46:58.960Z,85.81
2023-10-26T09:49:27.525Z,85.75
2023-10-26T09:51:55.131Z,85.93
2023-10-26T09:54:25.920Z,86.08
2023-10-26T09:57:00.701Z,86.41
2023-10-26T09:59:29.130Z,86.41
2023-10-26T10:01:55.835Z,86.67
2023-10-26T10:04:38.250Z,86.85
2023-10-26T10:07:05.415Z,87.02
2023-10-26T10:09:32.968Z,87.07
2023-10-26T10:12:05.887Z,87.09
2023-10-26T10:14:47.996Z,87.40
2023-10-26T10:17:19.159Z,87.34
2023-10-26T10:19:48.294Z,87.20
2023-10-26T10:22:40.128Z,87.35
2023-10-26T10:25:10.538Z,87.47
2023-10-26T10:28:00.225Z,87.55
2023-10-26T10:30:31.513Z,87.57
2023-10-26T10:32:58.587Z,87.82
2023-10-26T10:35:47.247Z,87.82
2023-10-26T10:38:17.216Z,87.69
2023-10-26T10:40:56.231Z,87.83
2023-10-26T10:43:33.863Z,87.97
2023-10-26T10:46:10.246Z,87.85
2023-10-26T10:48:37.288Z,88.02
2023-10-26T10:51:04.740Z,88.04
2023-10-26T10:53:32.697Z,88.09
2023-10-26T10:55:59.689Z,88.17
2023-10-26T10:58:36.981Z,87.99
2023-10-26T11:01:03.548Z,88.19
2023-10-26T11:03:30.152Z,87.81
2023-10-26T11:05:56.747Z,87.93
2023-10-26T11:08:23.514Z,88.20
2023-10-26T11:10:50.957Z,87.99
2023-10-26T11:13:22.641Z,88.19
2023-10-26T11:15:49.294Z,88.43
2023-10-26T11:18:16.106Z,88.55
2023-10-26T11:20:49.616Z,88.21
2023-10-26T11:23:22.522Z,88.18
2023-10-26T11:25:49.169Z,88.18
2023-10-26T11:28:15.803Z,88.06
2023-10-26T11:30:50.699Z,87.87
2023-10-26T11:33:38.630Z,87.99
2023-10-26T11:36:13.796Z,88.14
2023-10-26T11:38:50.628Z,88.48
2023-10-26T11:41:24.543Z,88.69
2023-10-26T11:43:51.469Z,88.68
2023-10-26T11:46:35.294Z,88.68
2023-10-26T11:49:04.327Z,88.82
2023-10-26T11:51:31.851Z,88.82
2023-10-26T11:54:11.709Z,88.81
2023-10-26T11:56:38.422Z,88.79
2023-10-26T11:59:05.279Z,88.62
2023-10-26T12:01:31.962Z,88.52
2023-10-26T12:03:58.724Z,88.31
2023-10-26T12:06:25.280Z,88.33
2023-10-26T12:08:51.815Z,88.29
2023-10-26T12:11:18.451Z,88.18
2023-10-26T12:13:44.953Z,87.85
2023-10-26T12:16:11.594Z,87.71
2023-10-26T12:18:38.212Z,87.60
2023-10-26T12:21:04.752Z,87.34
2023-10-26T12:23:31.632Z,87.04
2023-10-26T12:25:58.231Z,86.98
2023-10-26T12:28:27.066Z,87.19
2023-10-26T12:30:55.876Z,87.25
2023-10-26T12:33:22.587Z,87.44
2023-10-26T12:35:49.212Z,87.35
2023-10-26T12:38:15.833Z,87.82
2023-10-26T12:40:42.506Z,87.68
2023-10-26T12:43:09.013Z,87.67
2023-10-26T12:45:36.957Z,87.59
2023-10-26T12:48:04.254Z,87.76
2023-10-26T12:50:31.608Z,87.81
2023-10-26T12:52:58.302Z,87.51
2023-10-26T12:55:25.126Z,87.86
2023-10-26T12:57:53.261Z,87.88
2023-10-26T13:00:20.860Z,87.59
2023-10-26T13:02:47.664Z,87.63
2023-10-26T13:05:14.295Z,87.70
2023-10-26T13:07:40.924Z,87.66
2023-10-26T13:10:08.424Z,87.46
2023-10-26T13:12:35.313Z,87.51
2023-10-26T13:15:05.445Z,87.22
2023-10-26T13:17:32.999Z,87.15
2023-10-26T13:19:59.881Z,87.04
2023-10-26T13:22:28.826Z,87.27
2023-10-26T13:24:55.969Z,87.26
2023-10-26T13:27:23.117Z,87.33
2023-10-26T13:29:50.358Z,87.74
2023-10-26T13:32:17.052Z,87.67
2023-10-26T13:34:44.044Z,87.93
2023-10-26T13:37:10.776Z,88.07
2023-10-26T13:39:38.674Z,88.27
2023-10-26T13:42:05.431Z,88.35
2023-10-26T13:44:32.123Z,88.47
2023-10-26T13:46:58.816Z,88.46
2023-10-26T13:49:25.578Z,88.55
2023-10-26T13:51:52.884Z,88.75
2023-10-26T13:54:19.524Z,88.76
2023-10-26T13:56:46.239Z,88.65
2023-10-26T13:59:12.814Z,88.75
2023-10-26T14:01:39.485Z,88.84
2023-10-26T14:04:06.626Z,88.89
2023-10-26T14:06:33.320Z,88.77
2023-10-26T14:08:59.973Z,89.33
2023-10-26T14:11:27.935Z,89.02
2023-10-26T14:13:54.962Z,89.16
2023-10-26T14:16:21.919Z,89.33
2023-10-26T14:18:51.361Z,89.33
2023-10-26T14:21:18.067Z,89.30
2023-10-26T14:23:44.928Z,89.52
2023-10-26T14:26:11.718Z,89.36
2023-10-26T14:28:38.469Z,89.57
2023-10-26T14:31:05.567Z,89.54
2023-10-26T14:33:32.416Z,89.61
2023-10-26T14:35:59.160Z,89.78
2023-10-26T14:38:25.868Z,89.68
2023-10-26T14:40:56.726Z,89.77
2023-10-26T14:43:24.363Z,89.98
2023-10-26T14:45:51.031Z,90.07
2023-10-26T14:48:17.634Z,90.09
2023-10-26T14:50:46.261Z,89.93
2023-10-26T14:53:13.612Z,89.98
2023-10-26T14:58:25.785Z,90.07
2023-10-26T15:00:52.369Z,90.16
2023-10-26T15:03:18.939Z,90.11
2023-10-26T15:05:46.156Z,90.32
2023-10-26T15:08:12.762Z,90.32
2023-10-26T15:10:45.905Z,90.50
2023-10-26T15:13:12.515Z,90.12
2023-10-26T15:15:39.630Z,90.24
2023-10-26T15:18:08.617Z,90.40
2023-10-26T15:20:36.248Z,90.39
2023-10-26T15:23:02.990Z,90.46
2023-10-26T15:25:29.761Z,90.28
2023-10-26T15:27:58.352Z,90.36
2023-10-26T15:30:26.081Z,90.10
2023-10-26T15:32:52.685Z,90.63
2023-10-26T15:35:21.343Z,90.42
2023-10-26T15:37:47.968Z,90.45
2023-10-26T15:40:14.636Z,90.31
2023-10-26T15:42:41.281Z,90.32
2023-10-26T15:45:08.503Z,90.33
2023-10-26T15:47:35.303Z,90.30
2023-10-26T15:50:02.013Z,90.36
2023-10-26T15:52:28.718Z,90.24
2023-10-26T15:54:55.233Z,90.33
2023-10-26T15:57:22.512Z,90.39
2023-10-26T15:59:49.339Z,90.21
2023-10-26T16:02:15.812Z,90.32
2023-10-26T16:04:42.894Z,90.43
2023-10-26T16:07:09.621Z,90.39
2023-10-26T16:09:37.523Z,90.18
2023-10-26T16:12:04.675Z,90.39
2023-10-26T16:14:31.119Z,90.01
2023-10-26T16:16:57.637Z,89.96
2023-10-26T16:19:24.407Z,90.13
2023-10-26T16:21:50.969Z,90.19
2023-10-26T16:24:19.103Z,90.02
2023-10-26T16:26:45.619Z,90.12
2023-10-26T16:29:12.064Z,90.06
2023-10-26T16:31:38.677Z,90.11
2023-10-26T16:34:05.266Z,90.10
2023-10-26T16:36:31.747Z,90.17
2023-10-26T16:38:58.409Z,89.85
2023-10-26T16:41:25.225Z,89.85
2023-10-26T16:43:53.178Z,89.87
2023-10-26T16:46:21.269Z,89.78
2023-10-26T16:48:47.953Z,89.82
2023-10-26T16:51:14.624Z,89.85
2023-10-26T16:53:41.579Z,89.85
2023-10-26T16:56:09.540Z,89.81
2023-10-26T16:58:36.134Z,89.77
2023-10-26T17:01:12.217Z,89.92
2023-10-26T17:03:39.211Z,89.99
2023-10-26T17:06:05.899Z,89.88
2023-10-26T17:08:32.816Z,89.78
2023-10-26T17:10:59.696Z,89.66
2023-10-26T17:13:26.308Z,89.85
2023-10-26T17:15:54.141Z,89.74
2023-10-26T17:18:22.625Z,89.73
2023-10-26T17:20:50.152Z,89.85
2023-10-26T17:23:16.874Z,89.82
2023-10-26T17:25:43.643Z,89.60
2023-10-26T17:28:10.212Z,89.42
2023-10-26T17:30:38.059Z,89.53
2023-10-26T17:33:05.118Z,89.49
2023-10-26T17:35:31.665Z,89.26
2023-10-26T17:37:58.152Z,89.32
2023-10-26T17:40:25.202Z,89.34
2023-10-26T17:42:52.629Z,89.31
2023-10-26T17:45:19.951Z,89.19
2023-10-26T17:47:46.835Z,89.01
2023-10-26T17:50:13.595Z,89.06
2023-10-26T17:52:40.196Z,89.30
2023-10-26T17:55:06.912Z,89.08
2023-10-26T17:57:33.581Z,89.01
2023-10-26T18:00:00.152Z,88.90
2023-10-26T18:02:26.879Z,88.95
2023-10-26T18:04:53.538Z,89.03
2023-10-26T18:07:20.127Z,88.88
2023-10-26T18:09:47.395Z,88.91
2023-10-26T18:12:15.872Z,88.95
2023-10-26T18:14:42.740Z,88.83
2023-10-26T18:17:09.350Z,88.80
2023-10-26T18:19:35.899Z,88.73
2023-10-26T18:22:02.523Z,88.64
2023-10-26T18:24:32.796Z,88.66
2023-10-26T18:26:59.464Z,88.58
2023-10-26T18:29:26.394Z,88.77
2023-10-26T18:31:56.988Z,88.82
2023-10-26T18:34:23.693Z,88.59
2023-10-26T18:36:50.484Z,88.89
2023-10-26T18:39:17.305Z,88.77
2023-10-26T18:41:45.564Z,88.70
2023-10-26T18:44:12.059Z,88.58
2023-10-26T18:46:41.303Z,88.71
2023-10-26T18:49:08.146Z,88.67
2023-10-26T18:51:34.610Z,88.92
2023-10-26T18:54:01.093Z,88.81
2023-10-26T18:56:27.561Z,88.82
2023-10-26T18:58:56.062Z,88.72
2023-10-26T19:01:27.502Z,88.89
2023-10-26T19:04:02.139Z,88.72
2023-10-26T19:06:32.201Z,88.83
2023-10-26T19:08:59.429Z,88.95
2023-10-26T19:11:26.617Z,89.00
2023-10-26T19:13:53.312Z,89.08
2023-10-26T19:16:19.983Z,88.89
2023-10-26T19:18:46.722Z,89.15
2023-10-26T19:21:13.311Z,89.11
2023-10-26T19:23:39.769Z,89.08
2023-10-26T19:26:06.350Z,89.07
2023-10-26T19:28:32.990Z,89.06
2023-10-26T19:30:59.763Z,88.88
2023-10-26T19:33:28.248Z,89.06
2023-10-26T19:35:54.859Z,89.04
2023-10-26T19:38:21.278Z,89.18
2023-10-26T19:40:50.160Z,88.96
2023-10-26T19:43:16.895Z,88.96
2023-10-26T19:45:43.634Z,89.19
2023-10-26T19:48:10.313Z,89.05
2023-10-26T19:50:36.886Z,89.30
2023-10-26T19:53:03.766Z,89.19
2023-10-26T19:55:30.271Z,89.20
2023-10-26T19:57:57.009Z,89.32
2023-10-26T20:00:23.860Z,89.17
2023-10-26T20:02:50.487Z,89.13
2023-10-26T20:05:20.768Z,89.31
2023-10-26T20:07:47.305Z,89.36
2023-10-26T20:10:13.894Z,89.39
2023-10-26T20:12:40.422Z,89.54
2023-10-26T20:15:10.473Z,89.63
2023-10-26T20:17:36.989Z,89.59
2023-10-26T20:20:07.913Z,89.53
2023-10-26T20:22:35.058Z,89.60
2023-10-26T20:25:01.871Z,89.46
2023-10-26T20:27:28.615Z,89.56
2023-10-26T20:29:55.249Z,89.67
2023-10-26T20:32:21.784Z,89.65
2023-10-26T20:34:48.353Z,89.78
2023-10-26T20:37:15.128Z,89.65
2023-10-26T20:39:44.494Z,89.57
2023-10-26T20:42:11.498Z,89.79
2023-10-26T20:44:38.608Z,89.80
2023-10-26T20:47:06.269Z,89.84
2023-10-26T20:49:34.016Z,89.90
2023-10-26T20:52:02.076Z,90.08
2023-10-26T20:54:30.215Z,89.89
2023-10-26T20:56:56.776Z,89.98
2023-10-26T20:59:23.631Z,89.81
2023-10-26T21:01:50.231Z,89.78
2023-10-26T21:04:17.126Z,90.09
2023-10-26T21:06:47.390Z,89.97
2023-10-26T21:09:15.524Z,90.03
2023-10-26T21:11:42.261Z,90.15
2023-10-26T21:14:12.746Z,90.22
2023-10-26T21:16:40.025Z,90.23
2023-10-26T21:19:06.978Z,90.21
2023-10-26T21:21:33.469Z,90.09
2023-10-26T21:23:59.951Z,90.23
2023-10-26T21:26:27.087Z,90.27
2023-10-26T21:28:55.438Z,90.38
2023-10-26T21:31:24.775Z,90.47
2023-10-26T21:33:54.417Z,90.54
2023-10-26T21:36:21.609Z,90.41
2023-10-26T21:38:53.524Z,90.48
2023-10-26T21:41:23.021Z,90.41
2023-10-26T21:43:54.142Z,90.50
2023-10-26T21:46:21.184Z,90.39
2023-10-26T21:48:54.257Z,90.51
2023-10-26T21:51:21.009Z,90.63
2023-10-26T21:53:47.638Z,90.44
2023-10-26T21:56:33.517Z,90.53
2023-10-26T21:59:08.913Z,90.48
2023-10-26T22:01:35.729Z,90.72
2023-10-26T22:04:21.026Z,90.45
2023-10-26T22:06:49.050Z,90.75
2023-10-26T22:09:16.150Z,90.67
2023-10-26T22:11:42.690Z,90.61
2023-10-26T22:14:09.124Z,90.66
2023-10-26T22:16:35.771Z,90.76
2023-10-26T22:19:02.347Z,90.72
2023-10-26T22:21:28.887Z,91.10
2023-10-26T22:23:55.475Z,91.16
2023-10-26T22:26:22.292Z,90.77
2023-10-26T22:28:48.807Z,91.04
2023-10-26T22:31:15.585Z,91.02
2023-10-26T22:33:42.088Z,90.96
2023-10-26T22:36:09.210Z,90.83
2023-10-26T22:38:36.840Z,90.96
2023-10-26T22:41:06.654Z,91.07
2023-10-26T22:43:33.105Z,90.97
2023-10-26T22:45:59.676Z,91.12
2023-10-26T22:48:26.894Z,91.18
2023-10-26T22:50:53.309Z,91.04
2023-10-26T22:53:19.838Z,91.11
2023-10-26T22:55:47.114Z,91.07
2023-10-26T22:58:13.737Z,91.31
2023-10-26T23:00:40.264Z,91.16
2023-10-26T23:03:06.730Z,91.16
2023-10-26T23:05:34.462Z,91.20
2023-10-26T23:08:01.602Z,91.36
2023-10-26T23:10:28.198Z,91.31
2023-10-26T23:12:54.745Z,91.11
2023-10-26T23:15:21.210Z,91.26
2023-10-26T23:17:47.883Z,91.55
2023-10-26T23:20:14.410Z,91.24
2023-10-26T23:22:40.949Z,91.18
2023-10-26T23:25:09.487Z,91.37
2023-10-26T23:27:36.416Z,91.17
2023-10-26T23:30:03.188Z,90.98
2023-10-26T23:32:29.732Z,91.27
2023-10-26T23:34:58.049Z,91.43
2023-10-26T23:37:24.830Z,91.49
2023-10-26T23:40:00.868Z,91.36
2023-10-26T23:42:27.406Z,91.43
2023-10-26T23:44:54.116Z,91.50
2023-10-26T23:47:20.647Z,91.52
2023-10-26T23:49:47.178Z,91.59
2023-10-26T23:52:13.692Z,91.62
2023-10-26T23:54:40.297Z,91.61
2023-10-26T23:57:06.808Z,91.39
2023-10-26T23:59:33.496Z,91.64
